Goiania, Brazil

3:27 AM BRST on October 23, 2014 (GMT -0200)
Santa Genoveva | Change Station
CLOSE
Current Station
Airport
Location: Goiania Airport,
Elevation: 2451 ft
Nearby Weather Stations

Elev 2451 ft 16.63 °S, 49.22 °W | Updated 27 minutes ago

Scattered Clouds
Scattered Clouds
70 °F
Feels Like 70 °F
N
4
Wind Variable Wind from WNW

Today
High -- | Low -- °F
--% Chance of Precip.
Yesterday
High -- | Low -- °F
Precip. -- in
6:43 AM 7:18 PM
Waning Crescent, 0% visible
Pressure 30.04 in
Visibility 6.2 miles
Clouds Few 3500 ft
Scattered Clouds 8000 ft
Dew Point 63 °F
Humidity 78%
Rainfall 0.00 in
Snow Depth Not available.
UV 0 out of 12
Pollen Not available.
Air Quality Not available.
Flu Activity Not available.
METAR SBGO 230500Z 30003KT 9999 FEW035 SCT080 21/17 Q1017

More Conditions Fewer Conditions

Pressure 30.04 in
Visibility 6.2 miles
Clouds Few 3500 ft
Scattered Clouds 8000 ft
Dew Point 63 °F
Humidity 78%
Rainfall 0.00 in
Snow Depth Not available.
UV 0 out of 12
Pollen Not available.
Air Quality Not available.
Flu Activity Not available.
METAR SBGO 230500Z 30003KT 9999 FEW035 SCT080 21/17 Q1017

More Conditions Fewer Conditions

10-Day Weather Forecast

Almanac

Astronomy

Oct. 23, 2014 Rise Set
Actual Time 6:43 AM BRST 7:18 PM BRST
Civil Twilight 6:21 AM BRST 7:41 PM BRST
Nautical Twilight 5:55 AM BRST 8:07 PM BRST
Astronomical Twilight 5:29 AM BRST 8:33 PM BRST
Moon 6:27 AM BRST 7:13 PM BRST
Length of Visible Light 13h 19m
Length of Day
12h 35m
Tomorrow will be 0m 53s longer.
Waning Crescent, 0% of the Moon is Illuminated
Today
Waning Crescent
Oct 23
New
Oct 30
First Quarter
Nov 6
Full
Nov 14
Last Quarter

Yesterday's Extremes

Country Highs Country Lows

Community

WunderPhotos

Upload Photos

1,764,170 photos uploaded!

Nearby

Snow Depth

Not available.

Earthquake Activity

City Distance Mag. Time & Date
No recent earthquake activity has been reported nearby.
Minimum magnitude displayed is 2.5.

Coastal Water Temperatures

Place Temperature
No Stations Reporting

Nearby Weather Stations